Time;durP1;ratioP1;P1;durP2;ratioP2;P2;SDS_P1;SDS_P2;PMS_P1;PMS_P2;Temp;Humidity;BMP_temperature;BMP_pressure;BME280_temperature;BME280_humidity;BME280_pressure;Samples;Min_cycle;Max_cycle;Signal;HPM_P1;HPM_P2
2021/10/27 00:01:51;;;;;;;;;;;;;;;1.57;100.00;100073.33;1686454;85;21120;-62
2021/10/27 00:04:17;;;;;;;;;;;;;;;1.59;100.00;100064.67;1681154;85;20394;-62
2021/10/27 00:06:44;;;;;;;;;;;;;;;1.55;100.00;100074.52;1686553;83;20373;-63
2021/10/27 00:09:10;;;;;;;;;;;;;;;1.54;100.00;100068.88;1679374;83;20192;-62
2021/10/27 00:11:37;;;;;;;;;;;;;;;1.51;100.00;100072.72;1650687;85;20086;-62
2021/10/27 00:14:04;;;;;;;;;;;;;;;1.46;100.00;100070.61;1641558;86;21796;-61
2021/10/27 00:16:31;;;;;;;;;;;;;;;1.46;100.00;100073.77;1641248;86;20125;-62
2021/10/27 00:18:57;;;;;;;;;;;;;;;1.43;100.00;100061.72;1641530;86;20404;-61
2021/10/27 00:21:23;;;;;;;;;;;;;;;1.46;100.00;100053.42;1640630;86;20141;-61
2021/10/27 00:23:49;;;;;;;;;;;;;;;1.46;100.00;100049.95;1641192;86;20117;-62
2021/10/27 00:26:16;;;;;;;;;;;;;;;1.44;100.00;100046.66;1641063;87;21094;-62
2021/10/27 00:28:42;;;;;;;;;;;;;;;1.38;100.00;100044.77;1641336;87;20392;-62
2021/10/27 00:31:09;;;;;;;;;;;;;;;1.40;100.00;100040.12;1640979;86;20086;-63
2021/10/27 00:33:37;;;;;;;;;;;;;;;1.43;100.00;100033.95;1641331;86;20094;-61
2021/10/27 00:36:05;;;;;;;;;;;;;;;1.46;100.00;100048.63;1641231;87;20175;-62
2021/10/27 00:38:32;;;;;;;;;;;;;;;1.44;100.00;100038.22;1641299;86;21138;-62
2021/10/27 00:40:58;;;;;;;;;;;;;;;1.41;100.00;100039.10;1641172;86;20094;-62
2021/10/27 00:43:24;;;;;;;;;;;;;;;1.43;100.00;100042.39;1641417;86;20114;-64
2021/10/27 00:45:51;;;;;;;;;;;;;;;1.41;100.00;100047.86;1641267;86;20130;-62
2021/10/27 00:48:17;;;;;;;;;;;;;;;1.41;100.00;100043.88;1641405;86;20427;-62
2021/10/27 00:50:43;;;;;;;;;;;;;;;1.44;100.00;100039.55;1641337;86;21065;-63
2021/10/27 00:53:10;;;;;;;;;;;;;;;1.43;100.00;100031.30;1641429;86;20434;-62
2021/10/27 00:55:36;;;;;;;;;;;;;;;1.44;100.00;100030.80;1641063;86;20090;-62
2021/10/27 00:58:02;;;;;;;;;;;;;;;1.42;100.00;100031.47;1640451;86;20186;-62
2021/10/27 01:00:29;;;;;;;;;;;;;;;1.38;100.00;100024.42;1642279;84;20126;-62
2021/10/27 01:02:55;;;;;;;;;;;;;;;1.36;100.00;100028.25;1656261;86;21114;-62
2021/10/27 01:05:22;;;;;;;;;;;;;;;1.34;100.00;100024.95;1641213;86;20152;-62
2021/10/27 01:07:49;;;;;;;;;;;;;;;1.31;100.00;100029.30;1641483;87;20404;-61
2021/10/27 01:10:17;;;;;;;;;;;;;;;1.27;100.00;100025.70;1645916;86;20115;-61
2021/10/27 01:12:45;;;;;;;;;;;;;;;1.25;100.00;100026.86;1654221;87;20118;-64
2021/10/27 01:15:11;;;;;;;;;;;;;;;1.19;100.00;100017.02;1654385;85;21894;-63
2021/10/27 01:17:39;;;;;;;;;;;;;;;1.17;100.00;100017.19;1658768;86;20118;-63
2021/10/27 01:20:06;;;;;;;;;;;;;;;1.16;100.00;100012.10;1654338;87;20090;-63
2021/10/27 01:22:36;;;;;;;;;;;;;;;1.12;100.00;100008.17;1658768;85;20107;-62
2021/10/27 01:25:03;;;;;;;;;;;;;;;1.10;100.00;100008.84;1658885;85;20399;-62
2021/10/27 01:27:31;;;;;;;;;;;;;;;1.04;100.00;100012.53;1654400;87;21053;-63
2021/10/27 01:29:57;;;;;;;;;;;;;;;1.02;100.00;100012.39;1658766;85;20129;-63
2021/10/27 01:32:31;;;;;;;;;;;;;;;0.98;100.00;100003.17;1654442;85;20131;-62
2021/10/27 01:34:59;;;;;;;;;;;;;;;1.01;100.00;100002.83;1658863;85;20177;-63
2021/10/27 01:37:25;;;;;;;;;;;;;;;1.10;100.00;100010.98;1654405;86;20078;-63
2021/10/27 01:39:53;;;;;;;;;;;;;;;1.09;100.00;100006.70;1658790;86;21131;-62
2021/10/27 01:42:20;;;;;;;;;;;;;;;1.10;100.00;100009.66;1618330;86;20601;-62
2021/10/27 01:44:46;;;;;;;;;;;;;;;1.09;100.00;100004.06;1659831;84;20098;-62
2021/10/27 01:47:13;;;;;;;;;;;;;;;1.13;100.00;100011.12;1669457;84;20078;-62
2021/10/27 01:49:40;;;;;;;;;;;;;;;1.07;100.00;100006.87;1654046;87;20113;-63
2021/10/27 01:52:07;;;;;;;;;;;;;;;1.09;100.00;100011.18;1658642;85;21978;-63
2021/10/27 01:54:34;;;;;;;;;;;;;;;1.07;100.00;100009.52;1654127;87;20419;-63
2021/10/27 01:57:01;;;;;;;;;;;;;;;1.10;100.00;100005.69;1659243;86;20119;-63
2021/10/27 01:59:28;;;;;;;;;;;;;;;1.15;100.00;100007.80;1654172;85;20098;-62
2021/10/27 02:01:55;;;;;;;;;;;;;;;1.17;100.00;100001.83;1659056;86;20114;-62
2021/10/27 02:04:22;;;;;;;;;;;;;;;1.17;100.00;100006.61;1654135;85;21201;-61
2021/10/27 02:06:49;;;;;;;;;;;;;;;1.19;100.00;100009.09;1658913;85;20098;-63
2021/10/27 02:09:17;;;;;;;;;;;;;;;1.18;100.00;100011.42;1654151;86;20086;-63
2021/10/27 02:11:46;;;;;;;;;;;;;;;1.14;100.00;100010.95;1658564;85;20086;-63
2021/10/27 02:14:12;;;;;;;;;;;;;;;1.15;100.00;100013.94;1654441;85;20294;-62
2021/10/27 02:16:39;;;;;;;;;;;;;;;1.21;100.00;99997.83;1662557;83;21208;-62
2021/10/27 02:19:09;;;;;;;;;;;;;;;1.26;100.00;100000.24;1666374;85;20088;-63
2021/10/27 02:21:36;;;;;;;;;;;;;;;1.26;100.00;100003.39;1658752;86;20122;-63
2021/10/27 02:24:03;;;;;;;;;;;;;;;1.23;100.00;99995.33;1654217;87;20090;-62
2021/10/27 02:26:31;;;;;;;;;;;;;;;1.24;100.00;100001.42;1658584;86;20161;-64
2021/10/27 02:28:57;;;;;;;;;;;;;;;1.25;100.00;100000.41;1654116;85;21143;-64
2021/10/27 02:31:23;;;;;;;;;;;;;;;1.23;100.00;99997.97;1658650;86;20089;-63
2021/10/27 02:33:50;;;;;;;;;;;;;;;1.26;100.00;99992.81;1644729;86;20165;-63
2021/10/27 02:36:17;;;;;;;;;;;;;;;1.34;100.00;100000.65;1654340;85;20145;-63
2021/10/27 02:38:43;;;;;;;;;;;;;;;1.31;100.00;99997.05;1654441;85;20102;-63
2021/10/27 02:41:11;;;;;;;;;;;;;;;1.33;100.00;99993.73;1654136;85;21146;-63
2021/10/27 02:43:37;;;;;;;;;;;;;;;1.34;100.00;99998.52;1654388;85;20407;-62
2021/10/27 02:46:04;;;;;;;;;;;;;;;1.31;100.00;99994.41;1654126;87;20143;-63
2021/10/27 02:48:30;;;;;;;;;;;;;;;1.31;100.00;99993.59;1654250;87;20137;-63
2021/10/27 02:50:57;;;;;;;;;;;;;;;1.33;100.00;100000.34;1654251;87;20091;-64
2021/10/27 02:53:23;;;;;;;;;;;;;;;1.29;100.00;99995.91;1654278;85;21098;-63
2021/10/27 02:55:50;;;;;;;;;;;;;;;1.25;100.00;100000.41;1654319;87;20124;-63
2021/10/27 02:58:16;;;;;;;;;;;;;;;1.24;100.00;99992.17;1654322;85;20150;-62
2021/10/27 03:00:42;;;;;;;;;;;;;;;1.29;100.00;99989.30;1659719;83;20273;-64
2021/10/27 03:03:09;;;;;;;;;;;;;;;1.27;100.00;99989.16;1669378;85;20155;-63
2021/10/27 03:05:35;;;;;;;;;;;;;;;1.23;100.00;99998.48;1658623;85;21082;-63
2021/10/27 03:08:01;;;;;;;;;;;;;;;1.15;100.00;99991.94;1654117;85;20102;-62
2021/10/27 03:10:27;;;;;;;;;;;;;;;1.10;100.00;100001.73;1658315;84;20141;-62
2021/10/27 03:12:54;;;;;;;;;;;;;;;1.03;100.00;100000.33;1653821;87;20075;-63
2021/10/27 03:15:20;;;;;;;;;;;;;;;1.03;100.00;99992.91;1658787;86;20167;-63
2021/10/27 03:17:47;;;;;;;;;;;;;;;0.97;100.00;99987.81;1653978;85;21128;-63
2021/10/27 03:20:13;;;;;;;;;;;;;;;0.92;100.00;99988.86;1658827;86;20094;-64
2021/10/27 03:22:40;;;;;;;;;;;;;;;0.89;100.00;99988.42;1654226;85;20102;-63
2021/10/27 03:25:07;;;;;;;;;;;;;;;0.87;100.00;99992.55;1658732;85;20074;-63
2021/10/27 03:27:34;;;;;;;;;;;;;;;0.86;100.00;99993.56;1654348;87;20396;-64
2021/10/27 03:30:00;;;;;;;;;;;;;;;0.83;100.00;99995.22;1658805;86;21131;-62
2021/10/27 03:32:27;;;;;;;;;;;;;;;0.81;100.00;99999.38;1653870;85;20094;-63
2021/10/27 03:34:53;;;;;;;;;;;;;;;0.77;100.00;100006.52;1658711;85;20105;-63
2021/10/27 03:37:20;;;;;;;;;;;;;;;0.79;100.00;100009.81;1654361;85;20102;-63
2021/10/27 03:39:46;;;;;;;;;;;;;;;0.74;100.00;100007.70;1674930;83;20096;-61
2021/10/27 03:42:12;;;;;;;;;;;;;;;0.66;100.00;100003.79;1654177;87;21135;-62
2021/10/27 03:44:39;;;;;;;;;;;;;;;0.59;100.00;100001.06;1658258;86;20128;-62
2021/10/27 03:47:05;;;;;;;;;;;;;;;0.56;100.00;100006.67;1654332;87;20188;-61
2021/10/27 03:49:32;;;;;;;;;;;;;;;0.49;100.00;100011.52;1658523;85;20403;-63
2021/10/27 03:51:59;;;;;;;;;;;;;;;0.45;100.00;100002.33;1654345;85;20126;-63
2021/10/27 03:54:25;;;;;;;;;;;;;;;0.42;100.00;100009.61;1658648;85;21212;-62
2021/10/27 03:56:52;;;;;;;;;;;;;;;0.36;100.00;100000.23;1654283;87;20106;-61
2021/10/27 03:59:18;;;;;;;;;;;;;;;0.34;100.00;100007.52;1658774;85;20126;-61
2021/10/27 04:01:44;;;;;;;;;;;;;;;0.31;100.00;100009.19;1654266;85;20143;-62
2021/10/27 04:04:11;;;;;;;;;;;;;;;0.27;100.00;100007.89;1658737;86;20113;-63
2021/10/27 04:06:38;;;;;;;;;;;;;;;0.25;100.00;100004.62;1654432;85;21069;-62
2021/10/27 04:09:04;;;;;;;;;;;;;;;0.15;100.00;100000.39;1658659;85;20094;-62
2021/10/27 04:11:31;;;;;;;;;;;;;;;0.11;100.00;99991.16;1645409;87;20178;-62
2021/10/27 04:13:57;;;;;;;;;;;;;;;0.16;100.00;99982.72;1636525;86;20630;-61
2021/10/27 04:16:24;;;;;;;;;;;;;;;0.28;100.00;99998.98;1626913;88;20104;-61
2021/10/27 04:18:50;;;;;;;;;;;;;;;0.31;100.00;99989.38;1636327;86;21127;-62
2021/10/27 04:21:17;;;;;;;;;;;;;;;0.24;100.00;99977.88;1615834;88;20104;-61
2021/10/27 04:23:43;;;;;;;;;;;;;;;0.25;100.00;99977.72;1636459;86;20416;-62
2021/10/27 04:26:10;;;;;;;;;;;;;;;0.26;100.00;99974.57;1626986;88;20088;-62
2021/10/27 04:28:36;;;;;;;;;;;;;;;0.24;100.00;99980.52;1636447;87;20094;-62
2021/10/27 04:31:02;;;;;;;;;;;;;;;0.21;100.00;99981.70;1626986;88;21150;-63
2021/10/27 04:33:29;;;;;;;;;;;;;;;0.18;100.00;99975.45;1636152;86;20102;-61
2021/10/27 04:35:55;;;;;;;;;;;;;;;0.21;100.00;99980.38;1641168;86;20133;-61
2021/10/27 04:38:22;;;;;;;;;;;;;;;0.24;100.00;99976.56;1641078;86;20115;-62
2021/10/27 04:40:50;;;;;;;;;;;;;;;0.24;100.00;99980.02;1641102;86;20440;-62
2021/10/27 04:43:17;;;;;;;;;;;;;;;0.25;100.00;99982.19;1640928;86;21135;-63
2021/10/27 04:45:43;;;;;;;;;;;;;;;0.23;100.00;99986.31;1641037;87;20114;-62
2021/10/27 04:48:10;;;;;;;;;;;;;;;0.23;100.00;99986.31;1641264;87;20173;-62
2021/10/27 04:50:37;;;;;;;;;;;;;;;0.18;100.00;99981.55;1641238;86;20170;-63
2021/10/27 04:53:05;;;;;;;;;;;;;;;0.14;100.00;99982.89;1641448;87;20401;-61
2021/10/27 04:55:31;;;;;;;;;;;;;;;0.14;100.00;99987.35;1632033;86;21136;-65
2021/10/27 04:57:58;;;;;;;;;;;;;;;0.17;100.00;99986.99;1641240;86;20146;-64
2021/10/27 05:00:25;;;;;;;;;;;;;;;0.16;100.00;100001.20;1658464;84;20143;-62
2021/10/27 05:02:51;;;;;;;;;;;;;;;0.15;100.00;100004.34;1649928;84;20198;-62
2021/10/27 05:05:18;;;;;;;;;;;;;;;0.17;100.00;100001.04;1700613;84;20098;-61
2021/10/27 05:07:45;;;;;;;;;;;;;;;0.21;100.00;100002.81;1659551;85;21156;-62
2021/10/27 05:10:12;;;;;;;;;;;;;;;0.24;100.00;100006.42;1690950;83;20175;-62
2021/10/27 05:12:38;;;;;;;;;;;;;;;0.31;100.00;100015.79;1706528;83;20082;-63
2021/10/27 05:15:06;;;;;;;;;;;;;;;0.35;100.00;100009.98;1711531;83;20608;-62
2021/10/27 05:17:33;;;;;;;;;;;;;;;0.41;100.00;100017.19;1711598;84;20137;-63
2021/10/27 05:20:00;;;;;;;;;;;;;;;0.49;100.00;100016.33;1679589;84;21126;-63
2021/10/27 05:22:26;;;;;;;;;;;;;;;0.59;100.00;100014.27;1656274;84;20632;-64
2021/10/27 05:24:53;;;;;;;;;;;;;;;0.69;100.00;100021.95;1655280;86;20126;-64
2021/10/27 05:30:37;;;;;;;;;;;;;;;0.94;100.00;100025.19;1653489;84;20472;-67
2021/10/27 05:33:03;;;;;;;;;;;;;;;1.10;100.00;100038.74;1670148;85;21153;-68
2021/10/27 05:35:32;;;;;;;;;;;;;;;1.19;100.00;100047.43;1645535;86;20188;-68
2021/10/27 05:37:59;;;;;;;;;;;;;;;1.39;100.00;100045.89;1672377;86;20085;-66
2021/10/27 05:40:26;;;;;;;;;;;;;;;1.53;100.00;100032.35;1663183;85;20164;-63
2021/10/27 05:42:53;;;;;;;;;;;;;;;1.62;100.00;100042.35;1655277;85;20500;-63
2021/10/27 05:45:23;;;;;;;;;;;;;;;1.82;100.00;100052.69;1650498;86;21369;-63
2021/10/27 05:47:50;;;;;;;;;;;;;;;2.01;100.00;100046.48;1671559;86;20139;-64
2021/10/27 05:50:26;;;;;;;;;;;;;;;2.12;100.00;100042.84;1668052;84;20191;-64
2021/10/27 05:55:34;;;;;;;;;;;;;;;2.46;100.00;100061.77;1666075;86;20138;-64
2021/10/27 05:58:02;;;;;;;;;;;;;;;2.49;100.00;100060.05;1654446;85;21148;-63
2021/10/27 06:00:32;;;;;;;;;;;;;;;2.64;100.00;100058.16;1652030;86;20855;-65
2021/10/27 06:03:01;;;;;;;;;;;;;;;2.79;100.00;100063.39;1650324;87;20437;-63
2021/10/27 06:05:28;;;;;;;;;;;;;;;2.96;100.00;100066.59;1652467;85;20182;-64
2021/10/27 06:07:55;;;;;;;;;;;;;;;3.19;100.00;100061.89;1645410;86;20507;-65
2021/10/27 06:10:22;;;;;;;;;;;;;;;3.42;100.00;100064.28;1628426;86;21165;-65
2021/10/27 06:12:50;;;;;;;;;;;;;;;3.49;100.00;100060.35;1631525;86;20153;-64
2021/10/27 06:15:19;;;;;;;;;;;;;;;3.61;100.00;100045.52;1633651;86;20146;-65
2021/10/27 06:17:48;;;;;;;;;;;;;;;3.85;100.00;100054.02;1649923;86;20150;-66
2021/10/27 06:20:15;;;;;;;;;;;;;;;4.13;100.00;100061.06;1660680;86;20145;-66
2021/10/27 06:22:43;;;;;;;;;;;;;;;4.32;100.00;100056.33;1660792;84;21115;-65
2021/10/27 06:25:11;;;;;;;;;;;;;;;4.58;100.00;100061.37;1660788;84;20102;-65
2021/10/27 06:27:46;;;;;;;;;;;;;;;4.59;100.00;100056.39;1661008;84;20364;-64
2021/10/27 06:30:30;;;;;;;;;;;;;;;4.77;100.00;100063.25;1660727;86;20463;-64
2021/10/27 06:33:21;;;;;;;;;;;;;;;4.91;100.00;100063.57;1660705;86;20107;-65
2021/10/27 06:35:41;;;;;;;;;;;;;;;5.08;100.00;100058.66;1657462;86;21988;-64
2021/10/27 06:48:55;;;;;;;;;;;;;;;5.40;100.00;100066.02;1660891;86;21206;-64
2021/10/27 06:51:21;;;;;;;;;;;;;;;5.28;100.00;100071.95;1660970;86;20304;-65
2021/10/27 06:53:48;;;;;;;;;;;;;;;5.24;100.00;100071.23;1660921;84;20392;-65
2021/10/27 06:56:17;;;;;;;;;;;;;;;5.13;100.00;100072.69;1654669;86;20110;-64
2021/10/27 07:01:53;;;;;;;;;;;;;;;5.21;100.00;100069.80;1634212;88;22336;-65
2021/10/27 07:04:13;;;;;;;;;;;;;;;5.17;100.00;100071.27;1629722;88;20131;-65
2021/10/27 07:17:29;;;;;;;;;;;;;;;5.11;100.00;100062.75;1634853;86;20108;-67
2021/10/27 07:19:56;;;;;;;;;;;;;;;5.12;100.00;100065.70;1634838;86;20410;-67
2021/10/27 07:22:22;;;;;;;;;;;;;;;5.24;100.00;100064.09;1634650;86;20120;-66
2021/10/27 07:24:49;;;;;;;;;;;;;;;5.23;100.00;100062.44;1634788;86;20104;-66
2021/10/27 07:27:15;;;;;;;;;;;;;;;5.26;100.00;100067.34;1634818;86;21219;-64
2021/10/27 07:29:43;;;;;;;;;;;;;;;5.25;100.00;100071.04;1634758;86;20087;-66
2021/10/27 07:32:12;;;;;;;;;;;;;;;5.28;100.00;100079.12;1634804;86;20251;-66
2021/10/27 07:34:41;;;;;;;;;;;;;;;5.19;100.00;100062.53;1633515;88;20471;-65
2021/10/27 07:42:35;;;;;;;;;;;;;;;5.49;100.00;100076.23;1642660;86;20403;-64
2021/10/27 07:45:02;;;;;;;;;;;;;;;5.72;100.00;100086.42;1633617;87;20152;-64
2021/10/27 07:47:31;;;;;;;;;;;;;;;5.86;100.00;100087.73;1632899;86;20104;-62
2021/10/27 07:49:58;;;;;;;;;;;;;;;5.86;100.00;100087.73;1633792;88;20112;-65
2021/10/27 07:52:25;;;;;;;;;;;;;;;5.80;100.00;100090.70;1633699;86;21148;-67
2021/10/27 07:54:54;;;;;;;;;;;;;;;5.78;100.00;100086.93;1634402;88;20100;-65
2021/10/27 07:57:21;;;;;;;;;;;;;;;5.71;100.00;100084.80;1639039;86;20489;-64
2021/10/27 07:59:47;;;;;;;;;;;;;;;5.68;100.00;100077.20;1638686;86;20098;-64
2021/10/27 08:02:14;;;;;;;;;;;;;;;5.74;100.00;100077.71;1661315;86;20085;-64
2021/10/27 08:04:40;;;;;;;;;;;;;;;5.85;100.00;100070.91;1648732;86;21148;-64
2021/10/27 08:07:08;;;;;;;;;;;;;;;5.91;100.00;100070.60;1651284;86;20122;-62
2021/10/27 08:09:35;;;;;;;;;;;;;;;6.05;100.00;100069.56;1661570;86;20429;-65
2021/10/27 08:12:02;;;;;;;;;;;;;;;6.16;100.00;100079.54;1634495;86;20115;-63
2021/10/27 08:14:30;;;;;;;;;;;;;;;6.34;100.00;100076.69;1628790;86;20165;-62
2021/10/27 08:16:56;;;;;;;;;;;;;;;6.50;100.00;100086.86;1627981;87;21132;-62
2021/10/27 08:19:23;;;;;;;;;;;;;;;6.68;100.00;100079.46;1627834;88;20117;-61
2021/10/27 08:21:50;;;;;;;;;;;;;;;6.77;100.00;100084.03;1629376;87;20113;-62
2021/10/27 08:24:23;;;;;;;;;;;;;;;6.89;100.00;100079.64;1650663;86;20400;-62
2021/10/27 08:26:56;;;;;;;;;;;;;;;6.96;100.00;100077.73;1653877;85;20417;-63
2021/10/27 08:29:27;;;;;;;;;;;;;;;7.09;100.00;100095.50;1634170;85;21222;-61
2021/10/27 08:32:07;;;;;;;;;;;;;;;7.08;100.00;100093.88;1655415;86;20090;-62
2021/10/27 08:34:38;;;;;;;;;;;;;;;7.11;100.00;100096.10;1652642;85;20415;-62
2021/10/27 08:37:03;;;;;;;;;;;;;;;7.24;100.00;100099.17;1651324;85;20518;-63
2021/10/27 08:39:29;;;;;;;;;;;;;;;7.33;100.00;100107.74;1628675;87;20081;-62
2021/10/27 08:41:56;;;;;;;;;;;;;;;7.28;100.00;100101.20;1627879;86;21783;-62
2021/10/27 08:44:22;;;;;;;;;;;;;;;7.24;100.00;100101.84;1650514;86;20134;-63
2021/10/27 08:46:49;;;;;;;;;;;;;;;7.18;100.00;100104.87;1654518;85;20102;-63
2021/10/27 08:49:20;;;;;;;;;;;;;;;7.25;100.00;100102.13;1654579;85;20102;-63
2021/10/27 08:52:10;;;;;;;;;;;;;;;7.26;100.00;100101.11;1630212;85;20127;-63
2021/10/27 08:54:34;;;;;;;;;;;;;;;7.27;100.00;100097.39;1627564;86;21129;-63
2021/10/27 08:57:06;;;;;;;;;;;;;;;7.34;100.00;100103.50;1627030;86;20156;-63
2021/10/27 09:07:56;;;;;;;;;;;;;;;7.55;100.00;100118.32;1627804;86;21132;-61
2021/10/27 10:06:12;;;;;;;;;;;;;;;8.53;100.00;100124.66;1627913;86;20724;-62
2021/10/27 10:08:41;;;;;;;;;;;;;;;8.56;100.00;100120.19;1628056;86;20149;-62
2021/10/27 10:11:11;;;;;;;;;;;;;;;8.58;100.00;100119.44;1628092;87;21112;-62
2021/10/27 10:13:38;;;;;;;;;;;;;;;8.61;100.00;100124.86;1627682;86;20386;-62
2021/10/27 10:16:06;;;;;;;;;;;;;;;8.67;100.00;100122.10;1627665;86;21134;-64
2021/10/27 10:18:43;;;;;;;;;;;;;;;8.69;100.00;100131.22;1628098;86;20108;-69
2021/10/27 10:21:11;;;;;;;;;;;;;;;8.71;100.00;100127.27;1647171;86;20153;-66
2021/10/27 10:23:39;;;;;;;;;;;;;;;8.68;100.00;100125.06;1655569;86;20418;-62
2021/10/27 10:26:08;;;;;;;;;;;;;;;8.78;100.00;100119.97;1630005;86;20089;-62
2021/10/27 10:28:38;;;;;;;;;;;;;;;8.79;100.00;100124.30;1627221;88;21143;-63
2021/10/27 10:31:06;;;;;;;;;;;;;;;8.83;100.00;100123.30;1627546;87;20434;-62
2021/10/27 10:33:45;;;;;;;;;;;;;;;8.91;100.00;100127.52;1624437;88;20089;-61
2021/10/27 10:36:25;;;;;;;;;;;;;;;9.09;100.00;100125.28;1624143;86;20128;-63
2021/10/27 11:40:45;;;;;;;;;;;;;;;10.39;100.00;100124.20;1692914;83;20457;-61
2021/10/27 11:45:54;;;;;;;;;;;;;;;10.32;100.00;100118.16;1678217;85;20148;-63
2021/10/27 11:50:41;;;;;;;;;;;;;;;10.09;100.00;100118.98;1678091;85;21114;-66
2021/10/27 11:53:22;;;;;;;;;;;;;;;10.13;100.00;100121.49;1690391;85;20130;-62
2021/10/27 11:55:49;;;;;;;;;;;;;;;10.37;100.00;100127.65;1636738;85;20455;-61
2021/10/27 11:58:15;;;;;;;;;;;;;;;10.36;100.00;100124.66;1640618;86;20163;-63
2021/10/27 12:00:44;;;;;;;;;;;;;;;10.23;100.00;100127.06;1668087;83;20185;-62
2021/10/27 12:03:13;;;;;;;;;;;;;;;10.22;100.00;100124.64;1657395;85;21194;-62
2021/10/27 12:05:49;;;;;;;;;;;;;;;10.29;100.00;100128.03;1656283;85;20076;-64
2021/10/27 12:13:29;;;;;;;;;;;;;;;10.04;100.00;100134.98;1630506;84;20146;-62
2021/10/27 12:16:02;;;;;;;;;;;;;;;9.95;100.00;100126.49;1689822;83;21201;-61
2021/10/27 12:18:15;;;;;;;;;;;;;;;9.97;100.00;100129.76;1662696;84;20445;-61
2021/10/27 12:20:46;;;;;;;;;;;;;;;10.00;100.00;100128.47;1687482;85;20186;-61
2021/10/27 12:23:19;;;;;;;;;;;;;;;9.96;100.00;100125.96;1684147;83;20207;-61
2021/10/27 12:25:47;;;;;;;;;;;;;;;10.02;100.00;100133.05;1719748;83;20104;-62
2021/10/27 12:28:25;;;;;;;;;;;;;;;10.04;100.00;100138.50;1693153;83;21209;-62
2021/10/27 12:30:52;;;;;;;;;;;;;;;9.93;100.00;100131.80;1687594;83;20122;-61
2021/10/27 12:33:39;;;;;;;;;;;;;;;9.93;100.00;100125.91;1694701;83;20193;-61
2021/10/27 12:36:31;;;;;;;;;;;;;;;9.90;100.00;100130.91;1711603;83;20128;-59
2021/10/27 12:39:25;;;;;;;;;;;;;;;9.91;100.00;100135.23;1713205;83;20433;-60
2021/10/27 12:42:07;;;;;;;;;;;;;;;9.83;100.00;100134.55;1691706;83;21155;-62
2021/10/27 12:44:47;;;;;;;;;;;;;;;9.75;100.00;100142.11;1693847;83;20126;-60
2021/10/27 12:47:28;;;;;;;;;;;;;;;9.75;100.00;100140.27;1688726;83;20136;-61
2021/10/27 12:50:15;;;;;;;;;;;;;;;9.72;100.00;100141.25;1685914;83;20143;-60
2021/10/27 12:52:54;;;;;;;;;;;;;;;9.69;100.00;100143.06;1690571;83;20500;-60
2021/10/27 12:55:29;;;;;;;;;;;;;;;9.66;100.00;100142.47;1699094;84;20563;-60
2021/10/27 12:58:03;;;;;;;;;;;;;;;9.60;100.00;100140.74;1689703;83;20163;-60
2021/10/27 13:06:13;;;;;;;;;;;;;;;9.54;100.00;100149.70;1678160;84;20155;-61
2021/10/27 13:14:03;;;;;;;;;;;;;;;9.51;100.00;100156.05;1677149;84;20132;-61
2021/10/27 13:17:32;;;;;;;;;;;;;;;9.52;100.00;100162.50;1650674;85;20422;-61
2021/10/27 13:21:34;;;;;;;;;;;;;;;9.42;100.00;100163.08;1665787;85;21766;-60
2021/10/27 13:29:26;;;;;;;;;;;;;;;9.35;100.00;100165.05;1651040;86;20084;-60
2021/10/27 13:31:52;;;;;;;;;;;;;;;9.15;100.00;100180.09;1651079;86;20144;-60
2021/10/27 13:34:20;;;;;;;;;;;;;;;9.08;100.00;100175.34;1649674;86;21815;-61
2021/10/27 13:36:46;;;;;;;;;;;;;;;9.03;100.00;100179.23;1646918;86;20104;-60
2021/10/27 13:39:12;;;;;;;;;;;;;;;8.99;100.00;100170.02;1647288;86;20132;-60
2021/10/27 13:41:39;;;;;;;;;;;;;;;8.96;100.00;100170.48;1657411;85;20093;-60
2021/10/27 13:49:51;;;;;;;;;;;;;;;8.87;100.00;100187.41;1657855;86;20216;-61
2021/10/27 13:57:57;;;;;;;;;;;;;;;8.80;100.00;100190.16;1625510;86;20110;-59
2021/10/27 14:08:27;;;;;;;;;;;;;;;8.75;100.00;100194.04;1618289;87;20165;-60
2021/10/27 14:11:02;;;;;;;;;;;;;;;8.73;100.00;100188.09;1628575;88;20118;-59
2021/10/27 14:13:43;;;;;;;;;;;;;;;8.73;100.00;100184.61;1624213;87;21038;-60
2021/10/27 15:22:11;;;;;;;;;;;;;;;7.25;100.00;100237.81;1610349;88;21161;-65
2021/10/27 15:24:52;;;;;;;;;;;;;;;7.14;100.00;100230.48;1595020;89;21270;-65
2021/10/27 15:40:38;;;;;;;;;;;;;;;6.42;100.00;100227.93;1572440;91;20091;-62
2021/10/27 15:51:01;;;;;;;;;;;;;;;5.72;100.00;100229.44;1639663;87;20123;-62
2021/10/27 15:53:21;;;;;;;;;;;;;;;5.56;100.00;100234.65;1641780;87;20155;-60
2021/10/27 15:55:48;;;;;;;;;;;;;;;5.47;100.00;100236.70;1643511;87;20156;-61
2021/10/27 15:58:15;;;;;;;;;;;;;;;5.41;100.00;100231.37;1644265;86;20141;-61
2021/10/27 16:00:41;;;;;;;;;;;;;;;5.35;100.00;100233.82;1620711;85;21151;-61
2021/10/27 16:03:08;;;;;;;;;;;;;;;5.31;100.00;100233.09;1613151;87;20106;-62
2021/10/27 16:05:39;;;;;;;;;;;;;;;5.23;100.00;100238.62;1615900;87;20102;-60
2021/10/27 16:08:06;;;;;;;;;;;;;;;5.12;100.00;100234.69;1619684;87;20131;-61
2021/10/27 16:10:35;;;;;;;;;;;;;;;5.03;100.00;100230.08;1614777;86;20134;-62
2021/10/27 16:13:03;;;;;;;;;;;;;;;4.99;100.00;100229.34;1605486;88;21144;-62
2021/10/27 16:15:42;;;;;;;;;;;;;;;4.97;100.00;100234.85;1605454;89;20149;-62
2021/10/27 16:18:13;;;;;;;;;;;;;;;4.94;100.00;100238.73;1603799;89;20409;-60
2021/10/27 16:20:42;;;;;;;;;;;;;;;4.88;100.00;100234.23;1605714;88;20120;-62
2021/10/27 16:23:09;;;;;;;;;;;;;;;4.83;100.00;100231.34;1632081;87;20177;-61
2021/10/27 16:25:36;;;;;;;;;;;;;;;4.79;100.00;100233.27;1622295;87;21141;-62
2021/10/27 16:28:03;;;;;;;;;;;;;;;4.76;100.00;100231.83;1613268;87;20142;-61
2021/10/27 16:30:30;;;;;;;;;;;;;;;4.77;100.00;100233.46;1622814;88;20469;-61
2021/10/27 16:32:57;;;;;;;;;;;;;;;4.77;100.00;100229.98;1607002;88;20102;-61
2021/10/27 16:35:23;;;;;;;;;;;;;;;4.73;100.00;100238.38;1594423;90;20605;-61
2021/10/27 16:37:50;;;;;;;;;;;;;;;4.69;100.00;100235.79;1600122;88;21162;-62
2021/10/27 16:40:16;;;;;;;;;;;;;;;4.60;100.00;100240.14;1612177;87;20101;-61
2021/10/27 16:42:42;;;;;;;;;;;;;;;4.56;100.00;100236.23;1572349;90;20096;-61
2021/10/27 16:45:10;;;;;;;;;;;;;;;4.61;100.00;100233.83;1614578;87;20141;-61
2021/10/27 16:47:37;;;;;;;;;;;;;;;4.64;100.00;100240.88;1600597;88;20149;-61
2021/10/27 16:50:04;;;;;;;;;;;;;;;4.66;100.00;100243.36;1581538;89;21164;-61
2021/10/27 16:52:31;;;;;;;;;;;;;;;4.75;100.00;100243.47;1581680;90;20101;-60
2021/10/27 16:54:57;;;;;;;;;;;;;;;4.81;100.00;100241.36;1581092;89;20129;-61
2021/10/27 16:57:26;;;;;;;;;;;;;;;4.83;100.00;100238.00;1579349;89;21952;-60
2021/10/27 16:59:53;;;;;;;;;;;;;;;4.79;100.00;100234.09;1576917;90;20109;-61
2021/10/27 17:02:20;;;;;;;;;;;;;;;4.65;100.00;100236.38;1577059;91;21166;-61
2021/10/27 17:04:46;;;;;;;;;;;;;;;4.55;100.00;100234.08;1580111;89;20097;-61
2021/10/27 17:07:14;;;;;;;;;;;;;;;4.43;100.00;100234.33;1579277;89;20089;-61
2021/10/27 17:09:41;;;;;;;;;;;;;;;4.32;100.00;100226.93;1583668;90;20159;-62
2021/10/27 17:12:09;;;;;;;;;;;;;;;4.22;100.00;100235.26;1589869;89;20167;-61
2021/10/27 17:14:37;;;;;;;;;;;;;;;4.16;100.00;100234.69;1594725;89;20130;-62
2021/10/27 17:17:05;;;;;;;;;;;;;;;4.16;100.00;100233.36;1578371;90;20122;-62
2021/10/27 17:19:32;;;;;;;;;;;;;;;4.13;100.00;100234.58;1601941;89;20133;-61
2021/10/27 17:21:58;;;;;;;;;;;;;;;4.06;100.00;100241.17;1630971;86;20117;-61
2021/10/27 17:24:26;;;;;;;;;;;;;;;3.99;100.00;100239.48;1606702;88;20151;-61
2021/10/27 17:26:57;;;;;;;;;;;;;;;3.95;100.00;100233.75;1593277;89;21189;-61
2021/10/27 17:29:22;;;;;;;;;;;;;;;3.92;100.00;100231.97;1596310;88;20140;-61
2021/10/27 17:31:48;;;;;;;;;;;;;;;3.85;100.00;100238.07;1578010;89;20157;-62
2021/10/27 17:34:15;;;;;;;;;;;;;;;3.75;100.00;100235.42;1576851;90;20116;-61
2021/10/27 17:36:42;;;;;;;;;;;;;;;3.68;100.00;100239.37;1577004;91;20178;-62
2021/10/27 17:39:08;;;;;;;;;;;;;;;3.61;100.00;100249.92;1578811;89;21826;-61
2021/10/27 17:41:36;;;;;;;;;;;;;;;3.60;100.00;100250.95;1603287;88;20403;-61